Latest Weather Observations for Mount Keith

IDW60801

Issued at 10:43 pm WST Saturday 23 January 2021 (issued every 10 minutes, with the page automatically refreshed every 10 minutes)

About weather observations | Map of weather stations | Latest weather observations for WA | Other Formats
Station Details ID: 512019 Name: MOUNT KEITH Lat: -27.29 Lon: 120.55 Height: 542.33 m
Data from the previous 72 hours. | See also: Recent months for locations in Western Australia
Date/Time
WST
Temp
°C
App
Temp
°C
Dew
Point
°C
Rel
Hum
%
Delta-T
°C
Wind Press
QNH
hPa
Press
MSL
hPa
Rain since
9am
mm
Dir  Spd
km/h
Gust
km/h
Spd
kts
Gust
kts
23/10:30pm 30.3 29.5 16.0 42 9.1 ENE 15 20 8 11 1004.0 999.5 0.0
23/10:00pm 30.1 29.7 16.1 42 8.9 ENE 13 17 7 9 1004.0 999.5 0.0
23/09:30pm 30.9 30.7 15.7 39 9.6 ENE 11 13 6 7 1004.1 999.6 0.0
23/09:00pm 31.4 30.7 15.4 38 10.1 ENE 13 17 7 9 1004.1 999.6 0.0
23/08:30pm 32.0 31.2 15.1 36 10.7 ENE 13 20 7 11 1004.0 999.5 0.0
23/08:00pm 32.2 31.4 15.2 35 10.8 ENE 13 17 7 9 1003.8 999.3 0.0
23/07:30pm 32.6 31.6 14.7 34 11.2 E 13 17 7 9 1003.5 999.0 0.0
23/07:00pm 33.2 32.7 14.8 33 11.6 E 11 13 6 7 1003.4 998.9 0.0
23/06:30pm 33.9 33.6 14.4 31 12.2 E 9 15 5 8 1003.1 998.6 0.0
23/06:00pm 34.1 33.5 14.6 31 12.3 ENE 11 17 6 9 1003.0 998.5 0.0
23/05:30pm 34.2 33.6 14.7 31 12.3 NE 11 17 6 9 1002.8 998.3 0.0
23/05:00pm 34.0 33.4 14.5 31 12.3 ENE 11 17 6 9 1002.8 998.3 0.0
23/04:30pm 33.9 32.8 14.4 31 12.2 E 13 19 7 10 1002.7 998.2 0.0
23/04:00pm 34.2 34.5 15.1 31 12.2 N 7 11 4 6 1002.8 998.3 0.0
23/03:30pm 33.9 33.4 14.9 32 12.0 SSW 11 20 6 11 1003.2 998.8 0.0
23/03:00pm 33.2 32.4 15.2 33 11.4 ENE 13 20 7 11 1003.5 999.0 0.0
23/02:30pm 33.2 32.8 16.1 35 11.0 ENE 13 19 7 10 1003.8 999.3 0.0
23/02:00pm 32.7 32.1 15.7 36 10.9 ENE 13 24 7 13 1004.1 999.6 0.0
23/01:30pm 31.8 31.7 16.1 38 10.0 NNW 11 22 6 12 1004.3 999.8 0.0
23/01:00pm 31.1 30.5 16.7 42 9.3 NNE 15 28 8 15 1004.6 1000.1 0.0
23/12:30pm 31.2 29.9 16.8 42 9.3 NNE 19 28 10 15 1004.7 1000.2 0.0
23/12:00pm 30.3 29.2 17.4 46 8.4 NNE 19 32 10 17 1005.2 1000.8 0.0
23/11:30am 29.6 28.0 17.4 47 7.9 NNE 22 33 12 18 1005.8 1001.3 0.0
23/11:00am 29.8 28.3 17.6 48 7.9 NE 22 37 12 20 1006.2 1001.7 0.0
23/10:30am 28.4 26.2 17.9 53 6.8 NE 26 35 14 19 1006.4 1001.9 0.0
23/10:00am 27.8 25.1 17.6 53 6.6 NE 28 35 15 19 1006.8 1002.4 0.0
23/09:30am 26.7 23.7 16.9 55 6.2 NE 28 37 15 20 1006.9 1002.5 0.0
23/09:00am 26.5 24.2 17.6 58 5.7 NE 26 35 14 19 1007.0 1002.6 -
23/08:30am 25.8 23.5 17.7 61 5.2 NE 26 35 14 19 1007.1 1002.7 -
23/08:00am 25.2 23.2 18.2 65 4.5 NE 26 35 14 19 1007.1 1002.7 -
23/07:30am 24.6 23.1 17.6 65 4.5 NNE 22 30 12 16 1007.3 1002.8 -
23/07:00am 23.9 22.9 17.6 68 4.0 NNE 19 26 10 14 1007.4 1002.9 -
23/06:30am 22.9 22.9 18.2 75 3.0 NNE 15 22 8 12 1006.9 1002.5 -
23/06:00am 22.0 22.5 18.4 80 2.3 NNE 13 15 7 8 1006.6 1002.2 -
23/05:30am 21.9 22.4 18.3 80 2.3 NNE 13 15 7 8 1006.4 1001.9 -
23/05:00am 22.1 22.6 18.3 79 2.4 N 13 17 7 9 1006.1 1001.6 -
23/04:30am 22.1 22.4 18.7 81 2.2 NNE 15 20 8 11 1005.4 1000.9 -
23/04:00am 21.9 23.1 19.1 84 1.8 NNE 11 13 6 7 1005.0 1000.6 -
23/03:30am 22.1 23.0 19.3 84 1.8 NE 13 17 7 9 1005.0 1000.6 -
23/03:00am 22.4 23.3 19.2 82 2.1 NE 13 20 7 11 1004.9 1000.5 5.0
23/02:30am 22.6 23.3 18.8 79 2.5 NE 13 17 7 9 1004.8 1000.3 -
23/02:00am 23.0 22.8 18.5 76 2.9 NE 17 22 9 12 1004.8 1000.3 -
23/01:30am 23.2 22.9 18.3 74 3.1 NE 17 22 9 12 1005.1 1000.7 -
23/01:00am 23.4 22.3 17.8 71 3.6 NE 20 32 11 17 1005.1 1000.7 -
23/12:30am 23.3 20.8 18.0 72 3.4 NE 28 41 15 22 1005.7 1001.2 -
23/12:00am 24.0 20.6 16.8 64 4.5 NE 30 43 16 23 1006.3 1001.8 -
 
Date/Time
WST
Temp
°C
App
Temp
°C
Dew
Point
°C
Rel
Hum
%
Delta-T
°C
Wind Press
QNH
hPa
Press
MSL
hPa
Rain since
9am
mm
Dir  Spd
km/h
Gust
km/h
Spd
kts
Gust
kts
22/11:30pm 24.5 20.3 16.2 60 5.2 NE 33 48 18 26 1006.9 1002.5 -
22/11:00pm 22.6 19.8 19.4 82 2.1 NE 33 44 18 24 1007.7 1003.2 -
22/10:30pm 22.1 19.0 20.4 90 1.1 NE 37 52 20 28 1008.8 1004.4 -
22/10:00pm 22.1 20.8 20.7 92 0.9 ENE 28 37 15 20 1008.9 1004.5 -
22/09:30pm 22.4 20.5 21.0 92 0.9 ENE 32 43 17 23 1009.5 1005.0 -
22/09:26pm 22.5 21.4 21.0 91 1.0 ENE 28 39 15 21 1009.5 1005.0 -
22/09:05pm 22.7 22.6 19.5 82 2.1 E 19 33 10 18 1009.9 1005.4 -
22/09:00pm 23.0 23.4 19.8 82 2.1 NE 17 24 9 13 1010.0 1005.6 3.0
22/08:30pm 26.0 26.8 18.2 62 5.0 NW 11 26 6 14 1008.2 1003.7 -
22/08:00pm 26.2 26.4 18.6 63 5.0 E 15 24 8 13 1008.2 1003.7 -
22/07:30pm 27.0 25.8 16.0 51 6.9 WSW 17 24 9 13 1007.4 1002.9 -
22/07:00pm 26.3 26.1 18.4 61 5.1 SW 17 24 9 13 1007.0 1002.6 -
22/06:30pm 26.3 26.1 18.4 61 5.1 S 17 20 9 11 1007.0 1002.6 -
22/06:00pm 28.4 26.2 17.0 50 7.3 SE 24 39 13 21 1006.4 1001.9 -
22/05:30pm 28.4 25.6 15.3 45 8.2 NNW 24 30 13 16 1005.1 1000.7 -
22/05:00pm 28.3 24.6 14.9 44 8.3 NW 28 41 15 22 1004.2 999.7 -
22/04:33pm 28.6 22.4 15.8 45 8.1 NNW 43 61 23 33 1004.1 999.6 -
22/04:30pm 28.7 22.8 15.6 45 8.2 NNW 41 57 22 31 1004.1 999.6 -
22/04:00pm 27.4 21.7 17.3 54 6.5 NNW 43 74 23 40 1003.9 999.4 -
22/03:38pm 30.6 25.0 15.5 40 9.5 N 39 74 21 40 1004.6 1000.1 -
22/03:30pm 32.8 28.0 12.9 29 12.2 NNW 30 48 16 26 1003.8 999.3 -
22/03:00pm 32.6 28.6 14.2 32 11.5 NNE 28 46 15 25 1004.1 999.6 -
22/02:30pm 32.5 29.2 17.9 41 9.6 NE 32 46 17 25 1003.2 998.8 -
22/02:28pm 33.2 29.5 17.4 39 10.3 NE 33 50 18 27 1003.1 998.6 -
22/02:11pm 38.4 33.2 11.5 20 16.5 N 30 56 16 30 1002.8 998.3 -
22/02:09pm 39.2 34.1 10.5 18 17.4 N 28 56 15 30 1002.8 998.3 -
22/02:00pm 38.9 34.0 8.5 16 17.9 N 24 39 13 21 1002.9 998.4 -
22/01:30pm 38.6 34.0 10.9 19 16.8 N 26 37 14 20 1003.8 999.3 0.0
22/01:03pm 40.8 35.7 11.8 18 18.0 N 30 48 16 26 1004.1 999.6 0.0
22/01:00pm 40.2 34.9 11.3 18 17.8 N 30 46 16 25 1003.9 999.4 0.0
22/12:52pm 40.3 35.4 11.4 18 17.8 NNW 28 46 15 25 1004.2 999.7 0.0
22/12:30pm 40.3 35.8 11.4 18 17.8 NNW 26 39 14 21 1004.7 1000.2 0.0
22/12:00pm 39.8 35.0 11.8 19 17.3 N 28 48 15 26 1005.5 1001.0 0.0
22/11:58am 39.8 34.7 11.8 19 17.3 N 30 48 16 26 1005.6 1001.1 0.0
22/11:30am 39.2 34.2 12.1 20 16.8 N 30 46 16 25 1005.8 1001.3 0.0
22/11:00am 37.8 32.9 12.4 22 15.8 NNW 30 39 16 21 1006.2 1001.7 0.0
22/10:30am 38.5 32.9 11.5 20 16.5 N 32 54 17 29 1006.4 1001.9 0.0
22/10:26am 38.9 33.8 11.9 20 16.7 N 30 54 16 29 1006.4 1001.9 0.0
22/10:00am 38.1 33.6 12.7 22 15.8 N 28 39 15 21 1006.7 1002.3 0.0
22/09:30am 38.1 33.4 13.3 22 15.6 N 30 43 16 23 1006.8 1002.4 0.0
22/09:00am 36.2 32.2 13.0 24 14.4 N 26 37 14 20 1006.8 1002.4 0.0
22/08:30am 35.3 31.8 13.5 27 13.6 NNW 24 33 13 18 1007.1 1002.7 0.0
22/08:00am 34.9 32.3 13.7 28 13.3 NNW 20 32 11 17 1007.4 1002.9 0.0
22/07:30am 33.9 30.9 10.5 24 13.9 N 17 24 9 13 1007.4 1002.9 0.0
22/07:00am 32.9 30.8 9.7 24 13.6 NNE 11 13 6 7 1007.3 1002.8 0.0
22/06:30am 31.3 30.8 9.5 26 12.6 ESE 2 6 1 3 1007.1 1002.7 0.0
22/06:00am 29.1 27.8 9.3 29 11.3 SSW 6 6 3 3 1006.9 1002.5 0.0
22/05:30am 28.9 27.4 9.1 29 11.2 NE 7 9 4 5 1006.6 1002.2 0.0
22/05:00am 29.6 27.5 9.7 29 11.5 NNW 11 13 6 7 1006.5 1002.0 0.0
22/04:30am 29.6 28.4 9.7 29 11.4 ESE 6 6 3 3 1006.0 1001.5 0.0
22/04:00am 29.9 28.5 9.4 28 11.8 ESE 7 9 4 5 1005.8 1001.3 0.0
22/03:30am 31.0 28.9 9.8 27 12.3 ENE 11 15 6 8 1005.8 1001.3 0.0
22/03:00am 31.3 29.3 10.1 27 12.4 ENE 11 13 6 7 1005.8 1001.3 0.0
22/02:30am 31.1 28.7 9.9 27 12.3 ENE 13 17 7 9 1005.8 1001.3 0.0
22/02:00am 30.9 30.5 9.7 27 12.3 SSW 2 7 1 4 1005.5 1001.0 0.0
22/01:30am 30.8 30.6 9.1 26 12.4 CALM 0 4 0 2 1005.5 1001.0 0.0
22/01:00am 31.5 29.8 9.7 26 12.7 E 9 13 5 7 1005.6 1001.1 0.0
22/12:30am 32.0 30.2 9.5 25 13.0 E 9 13 5 7 1005.9 1001.4 0.0
22/12:00am 33.2 30.4 9.9 24 13.7 S 15 19 8 10 1006.0 1001.5 0.0
 
Date/Time
WST
Temp
°C
App
Temp
°C
Dew
Point
°C
Rel
Hum
%
Delta-T
°C
Wind Press
QNH
hPa
Press
MSL
hPa
Rain since
9am
mm
Dir  Spd
km/h
Gust
km/h
Spd
kts
Gust
kts
21/11:30pm 33.9 30.0 8.5 21 14.6 SSW 19 24 10 13 1006.5 1002.0 0.0
21/11:00pm 34.7 32.5 7.7 19 15.4 NW 9 15 5 8 1006.7 1002.3 0.0
21/10:30pm 35.0 31.7 7.9 19 15.5 NNW 15 24 8 13 1007.3 1002.8 0.0
21/10:00pm 35.6 32.6 7.6 18 16.0 NW 13 17 7 9 1007.4 1002.9 0.0
21/09:30pm 36.1 34.1 6.3 16 16.7 SSW 6 13 3 7 1007.1 1002.7 0.0
21/09:00pm 36.2 30.1 6.4 16 16.8 NNE 28 43 15 23 1007.1 1002.7 0.0
21/08:31pm 36.3 30.2 6.5 16 16.8 N 28 50 15 27 1007.1 1002.7 0.0
21/08:30pm 36.3 30.2 6.5 16 16.8 N 28 39 15 21 1007.3 1002.8 0.0
21/08:00pm 35.9 32.0 7.0 17 16.4 N 17 24 9 13 1007.3 1002.8 0.0
21/07:43pm 35.6 31.8 7.6 18 16.0 N 17 43 9 23 1007.4 1002.9 0.0
21/07:30pm 35.6 32.8 8.4 19 15.7 NNE 13 20 7 11 1007.7 1003.2 0.0
21/07:00pm 36.6 34.5 6.7 16 17.0 NNE 7 13 4 7 1006.8 1002.4 0.0
21/06:30pm 36.7 33.9 6.8 16 17.0 NNE 11 20 6 11 1006.5 1002.0 0.0
21/06:00pm 37.0 33.3 7.9 17 16.9 NNW 17 26 9 14 1006.5 1002.0 0.0
21/05:30pm 37.0 32.5 7.0 16 17.1 NNW 20 32 11 17 1006.5 1002.0 0.0
21/05:00pm 37.9 32.6 6.8 15 17.8 NNW 24 44 13 24 1006.1 1001.6 0.0
21/04:30pm 37.9 33.4 8.6 17 17.2 WSW 22 28 12 15 1005.7 1001.2 0.0
21/04:00pm 39.5 33.3 6.0 13 19.1 W 28 41 15 22 1005.8 1001.3 0.0
21/03:51pm 39.0 32.9 6.7 14 18.5 WNW 28 41 15 22 1005.7 1001.2 0.0
21/03:30pm 39.2 36.4 6.8 14 18.6 NNW 11 22 6 12 1005.9 1001.4 0.0
21/03:00pm 39.7 36.0 6.1 13 19.2 WSW 15 26 8 14 1006.2 1001.7 0.0
21/02:30pm 39.3 36.1 6.9 14 18.6 NW 13 26 7 14 1006.6 1002.2 0.0
21/02:00pm 39.9 37.3 6.3 13 19.3 SSW 9 19 5 10 1007.0 1002.6 0.0
21/01:30pm 40.1 35.1 6.4 13 19.3 WNW 22 32 12 17 1007.6 1003.1 0.0
21/01:00pm 37.9 35.5 8.6 17 17.2 NNW 11 20 6 11 1008.0 1003.5 0.0
21/12:30pm 39.0 35.6 7.7 15 18.2 NNW 15 28 8 15 1008.3 1003.9 0.0
21/12:00pm 39.2 37.2 8.8 16 18.0 W 9 24 5 13 1008.6 1004.2 0.0
21/11:30am 37.8 33.9 8.6 17 17.1 NNW 19 30 10 16 1009.0 1004.6 0.0
21/11:00am 38.5 36.1 10.0 18 17.1 W 13 20 7 11 1009.4 1004.9 0.0
21/10:30am 36.9 34.3 9.5 19 16.2 W 13 22 7 12 1009.9 1005.4 0.0
21/10:00am 36.1 33.8 10.3 21 15.4 NW 13 20 7 11 1010.1 1005.7 0.0
21/09:30am 34.8 33.3 10.6 23 14.4 NW 9 15 5 8 1010.4 1006.0 0.0
21/09:00am 34.2 32.6 11.4 25 13.7 W 11 19 6 10 1010.5 1006.1 0.0
21/08:30am 33.7 32.1 11.5 26 13.4 W 11 15 6 8 1010.5 1006.1 0.0
21/08:00am 32.5 31.5 12.2 29 12.3 WNW 9 13 5 7 1010.4 1006.0 0.0
21/07:30am 32.1 31.5 12.3 29 12.0 WSW 7 9 4 5 1010.4 1006.0 0.0
21/07:00am 31.0 30.2 12.8 32 11.1 SW 9 11 5 6 1010.5 1006.1 0.0
21/06:30am 29.7 29.8 12.6 35 10.3 W 4 7 2 4 1010.4 1006.0 0.0
21/06:00am 27.8 26.8 12.2 38 9.3 WSW 9 9 5 5 1010.2 1005.8 0.0
21/05:30am 27.0 27.6 11.9 39 8.9 CALM 0 0 0 0 1009.8 1005.3 0.0
21/05:00am 27.0 27.7 12.3 40 8.7 CALM 0 0 0 0 1009.7 1005.2 0.0
21/04:30am 27.3 27.2 12.1 39 9.0 SW 4 9 2 5 1009.4 1004.9 0.0
21/04:00am 28.0 28.8 12.4 38 9.3 CALM 0 0 0 0 1009.4 1004.9 0.0
21/03:30am 28.7 28.8 12.6 37 9.7 WSW 4 7 2 4 1009.5 1005.0 0.0
21/03:00am 29.0 28.7 12.8 36 9.8 SSW 6 9 3 5 1009.7 1005.2 0.0
21/02:30am 29.2 28.1 13.0 37 9.8 SW 11 13 6 7 1009.7 1005.2 0.0
21/02:00am 29.4 27.6 13.2 37 9.8 WSW 15 17 8 9 1010.0 1005.6 0.0
21/01:30am 29.7 27.4 13.0 35 10.1 WSW 17 22 9 12 1010.4 1006.0 0.0
21/01:00am 30.2 27.2 12.6 34 10.6 SW 20 28 11 15 1010.3 1005.9 0.0
21/12:30am 31.4 26.0 12.2 30 11.6 SW 32 41 17 22 1009.8 1005.3 0.0
21/12:00am 32.6 28.6 10.6 26 13.0 SW 22 32 12 17 1009.8 1005.3 0.0
 
Date/Time
WST
Temp
°C
App
Temp
°C
Dew
Point
°C
Rel
Hum
%
Delta-T
°C
Wind Press
QNH
hPa
Press
MSL
hPa
Rain since
9am
mm
Dir  Spd
km/h
Gust
km/h
Spd
kts
Gust
kts
20/11:30pm 33.9 29.8 8.5 21 14.6 SW 20 28 11 15 1010.0 1005.6 0.0
20/11:00pm 35.6 31.1 4.0 14 17.1 NW 17 32 9 17 1010.2 1005.8 0.0

Other formats

Comma delimited format used in spreadsheet applications
http://www.bom.gov.au/fwo/IDW60801/IDW60801.99434.axf

JavaScript Object Notation format (JSON) in row-major order
http://www.bom.gov.au/fwo/IDW60801/IDW60801.99434.json

Data quality

Most of these data are generated automatically and are frequently updated. Quality checks on data are not normally performed. It is possible for incorrect values to appear. Refer to information at About Latest Weather Observations and please check the disclaimer before using these data.